ADDS TAF Board (Experimental) INFO

IDs: Format: Expanded Condensed

Updated at: 0137 UTC 18 Sep 2014

KFLL - Ft Lauderdale-Hollyw, FL, US

Issued at 2331 UTC 17 Sep 2014
Time0053Z18/02Z18/03Z18/04Z18/05Z18/06Z18/07Z18/08Z18/09Z18/10Z18/11Z18/12Z18/13Z18/14Z
TypeOBSPRVLPRVLPRVLPRVLPRVLPRVLPRVLPRVLPRVLPRVLPRVLPRVLPRVL
VIS10>6>6>6>6>6>6>6>6>6>6>6>6>6
CIG41250250250250250250250250250250250----
CoverBKNBKNBKNBKNBKNBKNBKNBKNBKNBKNBKNBKNSCTSCT
FltCat--VFRVFRVFRVFRVFRVFRVFRVFRVFRVFRVFRVFRVFR
WX----------------------------
WDirVRBVRBVRBVRBVRBVRBVRBVRBVRBVRBVRBVRB290290
WSpd00000000000077
WGst----------------------------
R10/28
XWndVRBVRBVRBVRBVRBVRBVRBVRBVRBVRBVRBVRB22
HWndVRBVRBVRBVRBVRBVRBVRBVRBVRBVRBVRBVRB-7-7
Raw TAF
KFLL 172331Z 1800/1824 00000KT P6SM FEW060 BKN250
  FM181300 29007KT P6SM FEW035 SCT050
  FM181700 20009KT P6SM VCTS SCT035CB SCT150


Raw METAR
KFLL 180053Z 00000KT 10SM BKN041 BKN250 27/22 A2994 RMK AO2 SLP136 T02720217

TAF Board Legend

Hazard VFR MVFR IFR LIFR
Visibility (sm) >5 3≤X≤5 1≤X<3 <1
Ceiling (100 ft) >30 10≤X≤30 5≤X<10 <5
Wind Speed (kt) <10 10≤X<20 20≤X<30 ≥30
Wind Gust (kt) <15 15≤X<25 25≤X<35 ≥35
Weather No Wx Reported VCTS,-TS,-FZRA TS,FZRA +TS,+FZRA


Page loaded:  01:37 UTC  |   06:37 PM Pacific  |   07:37 PM Mountain  |   08:37 PM Central  |   09:37 PM Eastern

 

ADVISORIES

FORECASTS

FORECASTS

OBSERVATIONS

USER TOOLS

ABOUT US